TimeEST,TemperatureF,Dew PointF,Humidity,Sea Level PressureIn,VisibilityMPH,Wind Direction,Wind SpeedMPH,Gust SpeedMPH,PrecipitationIn,Events,Conditions,WindDirDegrees,DateUTC
12:15 AM,46.4,44.6,93,29.70,10.0,WSW,5.8,-,N/A,,Overcast,250,2012-11-24 05:15:00
12:35 AM,46.4,44.6,93,29.70,10.0,West,5.8,-,N/A,,Overcast,270,2012-11-24 05:35:00
1:15 AM,46.4,42.8,87,29.69,10.0,West,6.9,-,N/A,,Overcast,270,2012-11-24 06:15:00
1:35 AM,46.4,42.8,87,29.69,10.0,WNW,10.4,-,N/A,,Overcast,290,2012-11-24 06:35:00
1:55 AM,48.2,39.2,71,29.70,10.0,WNW,20.7,26.5,N/A,,Overcast,300,2012-11-24 06:55:00
2:15 AM,46.4,33.8,62,29.71,10.0,WNW,16.1,26.5,N/A,,Mostly Cloudy,300,2012-11-24 07:15:00
2:35 AM,44.6,21.2,39,29.73,10.0,WNW,25.3,36.8,N/A,,Scattered Clouds,300,2012-11-24 07:35:00
2:55 AM,44.6,10.4,25,29.72,10.0,WNW,23.0,29.9,N/A,,Overcast,290,2012-11-24 07:55:00
3:15 AM,42.8,10.4,27,29.72,10.0,WNW,15.0,21.9,N/A,,Overcast,290,2012-11-24 08:15:00
3:35 AM,42.8,10.4,27,29.72,10.0,WNW,16.1,23.0,N/A,,Overcast,290,2012-11-24 08:35:00
3:55 AM,42.8,8.6,25,29.73,10.0,WNW,17.3,28.8,N/A,,Mostly Cloudy,290,2012-11-24 08:55:00
4:15 AM,41.0,23.0,49,29.73,10.0,WNW,13.8,17.3,N/A,,Partly Cloudy,290,2012-11-24 09:15:00
4:55 AM,39.2,23.0,52,29.74,10.0,WNW,13.8,17.3,N/A,,Clear,290,2012-11-24 09:55:00
5:15 AM,39.2,23.0,52,29.74,10.0,WNW,15.0,21.9,N/A,,Clear,290,2012-11-24 10:15:00
5:35 AM,39.2,23.0,52,29.75,10.0,WNW,15.0,24.2,N/A,,Clear,290,2012-11-24 10:35:00
5:55 AM,37.4,23.0,56,29.76,10.0,WNW,13.8,20.7,N/A,,Clear,290,2012-11-24 10:55:00
6:15 AM,37.4,23.0,56,29.76,10.0,WNW,15.0,20.7,N/A,,Partly Cloudy,290,2012-11-24 11:15:00
6:35 AM,37.4,23.0,56,29.77,10.0,WNW,16.1,21.9,N/A,,Clear,290,2012-11-24 11:35:00
6:55 AM,37.4,23.0,56,29.78,10.0,WNW,11.5,-,N/A,,Clear,290,2012-11-24 11:55:00
7:15 AM,37.4,23.0,56,29.79,10.0,West,8.1,-,N/A,,Clear,280,2012-11-24 12:15:00
7:35 AM,37.4,23.0,56,29.79,10.0,West,11.5,18.4,N/A,,Clear,280,2012-11-24 12:35:00
7:55 AM,37.4,23.0,56,29.79,10.0,West,13.8,-,N/A,,Clear,280,2012-11-24 12:55:00
8:15 AM,39.2,23.0,52,29.79,10.0,West,18.4,21.9,N/A,,Clear,280,2012-11-24 13:15:00
8:35 AM,39.2,23.0,52,29.79,10.0,West,15.0,23.0,N/A,,Clear,280,2012-11-24 13:35:00
8:55 AM,39.2,24.8,56,29.79,10.0,WNW,12.7,23.0,N/A,,Clear,290,2012-11-24 13:55:00
9:15 AM,41.0,23.0,49,29.79,10.0,WNW,21.9,27.6,N/A,,Clear,300,2012-11-24 14:15:00
9:35 AM,41.0,23.0,49,29.79,10.0,WNW,17.3,24.2,N/A,,Clear,300,2012-11-24 14:35:00
9:55 AM,42.8,24.8,49,29.79,10.0,WNW,21.9,27.6,N/A,,Scattered Clouds,300,2012-11-24 14:55:00
10:15 AM,42.8,23.0,46,29.79,10.0,WNW,23.0,29.9,N/A,,Mostly Cloudy,300,2012-11-24 15:15:00
10:35 AM,42.8,6.8,23,29.79,10.0,WNW,21.9,27.6,N/A,,Scattered Clouds,290,2012-11-24 15:35:00
10:55 AM,42.8,6.8,23,29.79,10.0,NW,18.4,28.8,N/A,,Mostly Cloudy,310,2012-11-24 15:55:00
11:15 AM,42.8,6.8,23,29.78,10.0,NW,17.3,24.2,N/A,,Overcast,310,2012-11-24 16:15:00
11:35 AM,42.8,5.0,21,29.77,10.0,NW,25.3,29.9,N/A,,Overcast,310,2012-11-24 16:35:00
11:55 AM,42.8,6.8,23,29.77,10.0,WNW,16.1,29.9,N/A,,Overcast,300,2012-11-24 16:55:00
12:15 PM,42.8,6.8,23,29.76,10.0,NW,20.7,29.9,N/A,,Overcast,310,2012-11-24 17:15:00
12:35 PM,42.8,6.8,23,29.76,10.0,WNW,19.6,26.5,N/A,,Overcast,300,2012-11-24 17:35:00
12:55 PM,44.6,6.8,21,29.76,10.0,West,21.9,32.2,N/A,,Overcast,280,2012-11-24 17:55:00
1:15 PM,44.6,5.0,20,29.75,10.0,WNW,24.2,33.4,N/A,,Overcast,290,2012-11-24 18:15:00
1:35 PM,44.6,6.8,21,29.75,10.0,WNW,21.9,27.6,N/A,,Mostly Cloudy,300,2012-11-24 18:35:00
1:55 PM,44.6,6.8,21,29.75,10.0,West,20.7,33.4,N/A,,Overcast,280,2012-11-24 18:55:00
2:15 PM,42.8,6.8,23,29.75,10.0,WNW,20.7,29.9,N/A,,Overcast,290,2012-11-24 19:15:00
2:35 PM,42.8,6.8,23,29.75,10.0,WNW,20.7,28.8,N/A,,Overcast,300,2012-11-24 19:35:00
2:55 PM,42.8,5.0,21,29.76,10.0,WNW,21.9,29.9,N/A,,Overcast,290,2012-11-24 19:55:00
3:15 PM,42.8,5.0,21,29.76,10.0,WNW,15.0,23.0,N/A,,Overcast,290,2012-11-24 20:15:00
3:35 PM,42.8,5.0,21,29.76,10.0,West,20.7,25.3,N/A,,Overcast,280,2012-11-24 20:35:00
3:55 PM,42.8,5.0,21,29.77,10.0,WNW,16.1,29.9,N/A,,Overcast,300,2012-11-24 20:55:00
4:15 PM,41.0,6.8,24,29.77,10.0,WNW,12.7,24.2,N/A,,Mostly Cloudy,300,2012-11-24 21:15:00
4:35 PM,39.2,8.6,28,29.78,10.0,WNW,16.1,24.2,N/A,,Scattered Clouds,300,2012-11-24 21:35:00
4:55 PM,39.2,10.4,31,29.79,10.0,WNW,13.8,23.0,N/A,,Overcast,290,2012-11-24 21:55:00
5:15 PM,39.2,8.6,28,29.79,10.0,WNW,20.7,27.6,N/A,,Overcast,300,2012-11-24 22:15:00
5:35 PM,39.2,10.4,31,29.80,10.0,WNW,18.4,25.3,N/A,,Overcast,290,2012-11-24 22:35:00
5:55 PM,39.2,6.8,26,29.81,10.0,WNW,17.3,26.5,N/A,,Scattered Clouds,290,2012-11-24 22:55:00
6:15 PM,39.2,21.2,49,29.82,10.0,WNW,17.3,24.2,N/A,,Mostly Cloudy,290,2012-11-24 23:15:00
6:35 PM,39.2,10.4,31,29.83,10.0,WNW,18.4,26.5,N/A,,Mostly Cloudy,290,2012-11-24 23:35:00
6:55 PM,37.4,17.6,45,29.83,10.0,WNW,15.0,24.2,N/A,,Partly Cloudy,300,2012-11-24 23:55:00
7:15 PM,37.4,17.6,45,29.84,10.0,WNW,15.0,20.7,N/A,,Clear,300,2012-11-25 00:15:00
7:35 PM,37.4,17.6,45,29.84,10.0,WNW,11.5,16.1,N/A,,Clear,290,2012-11-25 00:35:00
7:55 PM,37.4,17.6,45,29.84,10.0,West,9.2,-,N/A,,Clear,280,2012-11-25 00:55:00
8:15 PM,35.6,17.6,48,29.84,10.0,WNW,10.4,-,N/A,,Clear,290,2012-11-25 01:15:00
8:35 PM,35.6,17.6,48,29.84,10.0,West,10.4,-,N/A,,Clear,280,2012-11-25 01:35:00
8:55 PM,35.6,21.2,56,29.84,10.0,West,11.5,17.3,N/A,,Clear,280,2012-11-25 01:55:00
9:15 PM,37.4,23.0,56,29.85,10.0,West,10.4,-,N/A,,Clear,270,2012-11-25 02:15:00
9:35 PM,37.4,21.2,52,29.85,10.0,West,11.5,17.3,N/A,,Partly Cloudy,270,2012-11-25 02:35:00
9:55 PM,37.4,21.2,52,29.85,10.0,West,10.4,-,N/A,,Partly Cloudy,280,2012-11-25 02:55:00
10:15 PM,37.4,21.2,52,29.85,10.0,West,9.2,16.1,N/A,,Clear,280,2012-11-25 03:15:00
10:35 PM,37.4,23.0,56,29.86,10.0,West,13.8,21.9,N/A,,Partly Cloudy,280,2012-11-25 03:35:00
10:55 PM,35.6,23.0,60,29.87,10.0,West,12.7,17.3,N/A,,Clear,280,2012-11-25 03:55:00
11:15 PM,35.6,21.2,56,29.88,10.0,West,12.7,19.6,N/A,,Clear,280,2012-11-25 04:15:00
11:35 PM,35.6,21.2,56,29.88,10.0,West,8.1,-,N/A,,Partly Cloudy,280,2012-11-25 04:35:00
11:55 PM,35.6,21.2,56,29.89,10.0,West,8.1,-,N/A,,Mostly Cloudy,280,2012-11-25 04:55:00